Time;durP1;ratioP1;P1;durP2;ratioP2;P2;SDS_P1;SDS_P2;PMS_P1;PMS_P2;Temp;Humidity;BMP_temperature;BMP_pressure;BME280_temperature;BME280_humidity;BME280_pressure;Samples;Min_cycle;Max_cycle;Signal;HPM_P1;HPM_P2
2021/12/12 00:01:34;;;;;;;11.07;1.52;;;22.00;96.70;;;;;;5019015;28;20117;-71
2021/12/12 00:04:15;;;;;;;5.68;1.25;;;22.00;95.80;;;;;;5019606;28;20107;-71
2021/12/12 00:06:52;;;;;;;5.50;1.33;;;21.80;96.20;;;;;;5018513;28;20032;-70
2021/12/12 00:09:29;;;;;;;6.60;1.48;;;21.90;96.00;;;;;;5019716;28;20104;-70
2021/12/12 00:11:58;;;;;;;6.75;1.40;;;21.80;96.00;;;;;;5019774;28;20167;-71
2021/12/12 00:14:31;;;;;;;9.18;1.00;;;21.80;96.10;;;;;;5019276;28;20745;-70
2021/12/12 00:17:00;;;;;;;8.57;1.58;;;21.90;96.40;;;;;;5019976;28;20032;-70
2021/12/12 00:19:29;;;;;;;7.82;1.05;;;21.80;96.70;;;;;;5019268;28;20413;-70
2021/12/12 00:21:59;;;;;;;8.30;2.05;;;21.80;96.20;;;;;;5019367;28;20040;-70
2021/12/12 00:24:27;;;;;;;8.80;1.83;;;22.00;96.90;;;;;;5019341;28;20505;-72
2021/12/12 00:26:56;;;;;;;10.40;1.20;;;22.10;96.80;;;;;;5019189;28;20117;-71
2021/12/12 00:29:25;;;;;;;7.93;1.20;;;22.10;96.60;;;;;;5019440;28;20021;-70
2021/12/12 00:31:58;;;;;;;5.78;0.85;;;22.20;96.20;;;;;;5018034;28;20025;-71
2021/12/12 00:34:28;;;;;;;7.82;1.90;;;22.30;96.20;;;;;;5019434;28;20025;-71
2021/12/12 00:36:55;;;;;;;4.90;0.95;;;22.30;95.70;;;;;;5018666;28;20014;-72
2021/12/12 00:39:27;;;;;;;9.40;1.58;;;22.30;95.10;;;;;;5018887;28;20017;-71
2021/12/12 00:42:02;;;;;;;7.15;1.20;;;22.30;95.20;;;;;;5018747;28;20028;-72
2021/12/12 00:44:30;;;;;;;9.32;1.40;;;22.30;95.40;;;;;;5018859;28;20059;-72
2021/12/12 00:47:01;;;;;;;9.82;1.42;;;22.40;95.00;;;;;;5019384;28;20485;-71
2021/12/12 00:49:31;;;;;;;5.75;1.50;;;22.60;94.80;;;;;;5019022;28;20577;-71
2021/12/12 00:51:59;;;;;;;7.68;1.05;;;22.60;94.20;;;;;;5018617;28;20116;-72
2021/12/12 00:54:31;;;;;;;5.05;1.00;;;22.60;94.20;;;;;;5018743;28;20018;-71
2021/12/12 00:57:03;;;;;;;8.73;2.58;;;22.60;94.30;;;;;;5018256;28;20030;-70
2021/12/12 00:59:30;;;;;;;9.30;2.00;;;22.80;93.70;;;;;;5018541;28;20029;-71
2021/12/12 01:01:59;;;;;;;6.85;1.50;;;22.90;93.50;;;;;;5018282;28;20037;-70
2021/12/12 01:04:38;;;;;;;5.47;1.10;;;23.20;93.40;;;;;;5018710;28;20387;-69
2021/12/12 01:07:11;;;;;;;8.10;1.75;;;23.20;93.20;;;;;;5019194;28;20022;-70
2021/12/12 01:09:51;;;;;;;4.28;0.88;;;23.30;93.00;;;;;;5016980;28;20028;-70
2021/12/12 01:12:23;;;;;;;5.50;0.90;;;23.30;92.80;;;;;;5001169;28;20418;-71
2021/12/12 01:14:52;;;;;;;;;;;23.30;93.30;;;;;;5017994;28;20029;-72
2021/12/12 01:17:27;;;;;;;5.45;1.20;;;23.40;92.30;;;;;;5018674;28;19905;-72
2021/12/12 01:20:09;;;;;;;5.05;1.63;;;23.40;92.90;;;;;;5017111;28;20419;-73
2021/12/12 01:22:38;;;;;;;10.60;1.57;;;23.40;93.20;;;;;;5018012;28;20120;-72
2021/12/12 01:25:37;;;;;;;12.85;2.25;;;23.20;93.80;;;;;;5018460;28;20259;-72
2021/12/12 01:28:05;;;;;;;10.43;2.25;;;23.20;93.70;;;;;;5010077;28;20030;-72
2021/12/12 01:30:32;;;;;;;11.13;2.17;;;23.10;93.50;;;;;;5017750;28;20078;-72
2021/12/12 01:32:59;;;;;;;9.77;1.75;;;22.90;93.70;;;;;;5016725;28;20025;-71
2021/12/12 01:35:28;;;;;;;12.27;1.90;;;22.60;93.60;;;;;;5017926;28;20022;-69
2021/12/12 01:40:49;;;;;;;10.27;1.48;;;22.60;94.50;;;;;;5017640;28;20087;-70
2021/12/12 01:43:24;;;;;;;9.10;1.73;;;22.60;93.30;;;;;;5016447;28;20026;-71
2021/12/12 01:46:25;;;;;;;6.70;1.58;;;22.60;93.90;;;;;;5018494;28;20029;-70
2021/12/12 01:48:57;;;;;;;10.98;2.00;;;22.70;93.90;;;;;;5018522;28;20480;-70
2021/12/12 01:51:27;;;;;;;10.27;2.47;;;23.00;94.60;;;;;;5017785;28;20450;-72
2021/12/12 01:53:58;;;;;;;13.18;2.92;;;23.50;94.20;;;;;;5017867;28;20033;-70
2021/12/12 01:56:59;;;;;;;10.48;1.52;;;23.70;93.20;;;;;;5018183;28;20017;-71
2021/12/12 01:59:33;;;;;;;10.95;2.85;;;24.00;92.80;;;;;;5006512;28;20033;-71
2021/12/12 02:02:11;;;;;;;10.38;2.47;;;24.10;92.60;;;;;;5017067;28;20025;-72
2021/12/12 02:04:48;;;;;;;11.02;2.00;;;24.40;92.40;;;;;;5017763;28;20542;-71
2021/12/12 02:07:21;;;;;;;10.73;2.15;;;24.40;92.70;;;;;;5016336;28;20022;-71
2021/12/12 02:09:50;;;;;;;9.57;1.90;;;24.50;92.90;;;;;;5017542;28;20071;-71
2021/12/12 02:12:21;;;;;;;11.60;1.48;;;24.20;92.80;;;;;;5016215;28;20530;-71
2021/12/12 02:14:49;;;;;;;10.65;2.67;;;24.30;92.20;;;;;;5017690;28;20075;-72
2021/12/12 02:17:33;;;;;;;7.43;2.35;;;24.30;92.20;;;;;;5015942;28;20391;-74
2021/12/12 02:20:11;;;;;;;8.68;1.40;;;24.40;90.70;;;;;;5017189;28;20022;-72
2021/12/12 02:36:25;;;;;;;8.10;2.30;;;25.30;88.40;;;;;;5014964;28;20027;-72
2021/12/12 02:38:54;;;;;;;6.38;1.70;;;25.50;86.10;;;;;;5017180;28;20028;-70
2021/12/12 02:41:24;;;;;;;11.25;2.15;;;25.60;84.10;;;;;;5015936;28;20013;-72
2021/12/12 02:44:01;;;;;;;9.07;1.70;;;25.60;85.00;;;;;;5017138;28;20021;-71
2021/12/12 02:46:35;;;;;;;9.65;1.50;;;25.80;85.30;;;;;;5016181;28;20053;-71
2021/12/12 02:49:23;;;;;;;5.13;1.08;;;25.90;84.20;;;;;;5017172;28;20091;-70
2021/12/12 02:51:51;;;;;;;6.88;0.90;;;26.00;84.40;;;;;;5016751;28;20033;-72
2021/12/12 02:54:18;;;;;;;7.32;1.92;;;26.30;84.30;;;;;;5015542;28;20087;-70
2021/12/12 02:56:48;;;;;;;7.40;1.20;;;26.30;84.20;;;;;;5017070;28;20079;-70
2021/12/12 02:59:20;;;;;;;9.88;1.70;;;26.20;84.60;;;;;;5015716;28;20067;-71
2021/12/12 03:02:01;;;;;;;7.75;2.05;;;26.40;86.20;;;;;;5016617;28;20108;-70
2021/12/12 03:04:29;;;;;;;8.88;2.05;;;26.40;84.00;;;;;;5014981;28;20025;-70
2021/12/12 03:06:58;;;;;;;9.23;1.60;;;26.10;85.70;;;;;;5016607;28;20605;-70
2021/12/12 03:09:42;;;;;;;11.07;1.95;;;26.20;86.00;;;;;;5015283;28;20085;-70
2021/12/12 03:12:15;;;;;;;10.90;2.35;;;26.30;86.10;;;;;;5016559;28;20044;-71
2021/12/12 03:14:45;;;;;;;12.13;1.92;;;26.80;87.70;;;;;;5016821;28;20109;-70
2021/12/12 03:17:21;;;;;;;7.55;2.03;;;27.30;82.50;;;;;;5015723;28;20079;-70
2021/12/12 03:19:51;;;;;;;9.38;1.60;;;27.70;80.70;;;;;;4998569;28;20129;-70
2021/12/12 03:22:20;;;;;;;7.10;1.67;;;28.00;78.90;;;;;;5015301;28;20083;-69
2021/12/12 03:24:48;;;;;;;10.48;1.92;;;28.30;79.70;;;;;;5017195;28;20050;-69
2021/12/12 03:27:17;;;;;;;12.63;2.00;;;28.60;77.20;;;;;;5015777;28;20660;-71
2021/12/12 03:29:46;;;;;;;5.57;1.20;;;29.00;73.90;;;;;;5016545;28;20028;-70
2021/12/12 03:32:16;;;;;;;6.82;1.55;;;28.90;73.90;;;;;;5019717;28;20030;-70
2021/12/12 03:34:49;;;;;;;11.80;2.30;;;29.00;73.80;;;;;;5019346;28;20105;-72
2021/12/12 03:37:18;;;;;;;6.97;1.85;;;29.20;73.40;;;;;;5021439;28;20028;-71
2021/12/12 03:39:48;;;;;;;8.15;1.80;;;29.20;73.80;;;;;;5018935;28;20079;-70
2021/12/12 03:42:20;;;;;;;9.75;2.35;;;29.30;74.70;;;;;;5021042;28;20412;-71
2021/12/12 03:44:48;;;;;;;7.78;2.00;;;29.60;71.30;;;;;;5001594;28;20032;-72
2021/12/12 03:47:26;;;;;;;10.25;1.80;;;29.60;71.40;;;;;;5020886;28;20026;-72
2021/12/12 03:49:54;;;;;;;8.07;1.40;;;29.40;71.60;;;;;;5018272;28;20110;-70
2021/12/12 03:52:22;;;;;;;8.68;2.17;;;29.00;72.90;;;;;;5020475;28;20038;-71
2021/12/12 03:54:52;;;;;;;11.35;2.58;;;28.90;74.50;;;;;;5017813;28;20028;-71
2021/12/12 03:57:21;;;;;;;8.98;1.50;;;28.90;73.40;;;;;;5020840;28;20017;-71
2021/12/12 03:59:49;;;;;;;9.10;1.83;;;28.70;72.70;;;;;;5018396;28;20133;-74
2021/12/12 04:02:17;;;;;;;14.50;2.22;;;28.90;73.50;;;;;;5020613;28;20052;-72
2021/12/12 04:04:46;;;;;;;9.40;2.05;;;29.40;70.50;;;;;;5018977;28;20024;-71
2021/12/12 04:07:21;;;;;;;11.70;2.05;;;29.50;68.60;;;;;;5019967;28;20036;-71
2021/12/12 04:09:49;;;;;;;9.95;2.05;;;29.50;69.40;;;;;;5018693;28;20017;-72
2021/12/12 04:12:19;;;;;;;7.65;1.63;;;29.80;68.00;;;;;;5020205;28;20030;-73
2021/12/12 04:14:47;;;;;;;10.40;2.80;;;29.70;67.40;;;;;;5018319;28;20025;-72
2021/12/12 04:17:18;;;;;;;7.30;1.63;;;29.90;66.70;;;;;;5019971;28;20180;-72
2021/12/12 04:19:48;;;;;;;10.27;2.28;;;30.20;67.30;;;;;;5018246;28;20056;-72
2021/12/12 04:22:16;;;;;;;9.60;2.53;;;30.60;66.40;;;;;;5002031;28;20033;-72
2021/12/12 04:24:47;;;;;;;8.65;1.70;;;30.50;64.90;;;;;;5018107;28;20029;-71
2021/12/12 04:27:17;;;;;;;9.23;2.03;;;30.50;66.80;;;;;;5019644;28;20021;-72
2021/12/12 04:29:47;;;;;;;10.20;2.13;;;30.60;66.40;;;;;;5017853;28;20414;-73
2021/12/12 04:32:19;;;;;;;9.85;3.05;;;30.60;63.80;;;;;;5019340;28;20175;-72
2021/12/12 04:34:56;;;;;;;8.80;2.08;;;30.40;64.00;;;;;;5018115;28;20466;-72
2021/12/12 04:37:25;;;;;;;8.52;1.50;;;30.20;66.40;;;;;;5020282;28;20330;-72
2021/12/12 04:39:56;;;;;;;8.25;2.33;;;30.10;65.60;;;;;;5017707;28;20021;-69
2021/12/12 04:42:26;;;;;;;6.40;1.92;;;30.20;66.40;;;;;;5018936;28;20025;-70
2021/12/12 04:45:15;;;;;;;10.25;1.90;;;30.30;65.30;;;;;;4999482;28;20034;-73
2021/12/12 04:51:09;;;;;;;6.65;1.83;;;30.20;65.00;;;;;;5014328;28;20057;-70
2021/12/12 04:53:59;;;;;;;10.57;2.17;;;30.10;65.20;;;;;;5020250;28;20060;-71
2021/12/12 04:56:55;;;;;;;11.90;2.42;;;30.00;64.50;;;;;;5019685;28;20517;-71
2021/12/12 04:59:56;;;;;;;8.80;2.17;;;29.60;66.80;;;;;;5016298;28;20034;-72
2021/12/12 05:02:45;;;;;;;8.70;1.73;;;29.60;67.30;;;;;;5016499;28;20108;-71
2021/12/12 05:05:52;;;;;;;8.43;2.00;;;29.70;66.00;;;;;;5018418;28;20091;-71
2021/12/12 05:08:27;;;;;;;14.50;2.72;;;29.90;64.50;;;;;;5018064;28;20057;-70
2021/12/12 05:11:01;;;;;;;10.30;2.25;;;30.00;65.10;;;;;;5017351;28;20113;-69
2021/12/12 05:13:40;;;;;;;8.48;1.90;;;29.90;65.20;;;;;;5018736;28;20026;-70
2021/12/12 05:16:24;;;;;;;10.65;2.53;;;29.80;64.70;;;;;;5016785;28;20024;-70
2021/12/12 05:19:01;;;;;;;14.23;2.40;;;29.60;65.00;;;;;;5017189;28;20032;-72
2021/12/12 05:21:32;;;;;;;10.40;1.83;;;29.50;66.50;;;;;;5018951;28;20079;-69
2021/12/12 05:24:02;;;;;;;7.97;1.75;;;29.40;64.60;;;;;;4999016;28;20029;-71
2021/12/12 05:26:52;;;;;;;11.15;1.77;;;28.90;66.60;;;;;;5018672;28;20030;-69
2021/12/12 05:29:54;;;;;;;8.45;2.03;;;29.20;65.70;;;;;;5018214;28;20482;-71
2021/12/12 05:32:23;;;;;;;11.77;3.00;;;29.00;65.90;;;;;;5017833;28;20034;-70
2021/12/12 05:34:51;;;;;;;12.52;2.30;;;28.80;66.00;;;;;;5017416;28;20378;-72
2021/12/12 05:37:21;;;;;;;10.27;2.60;;;28.50;66.80;;;;;;5018164;28;20018;-71
2021/12/12 05:39:50;;;;;;;11.85;1.58;;;28.40;67.20;;;;;;5018516;28;20381;-71
2021/12/12 05:42:20;;;;;;;11.48;2.33;;;28.50;66.80;;;;;;5018201;28;20083;-72
2021/12/12 05:44:48;;;;;;;17.05;2.85;;;28.40;68.30;;;;;;5018759;28;20022;-71
2021/12/12 05:47:16;;;;;;;10.75;2.88;;;28.00;68.80;;;;;;5017238;28;20063;-70
2021/12/12 05:49:43;;;;;;;13.98;1.50;;;27.90;69.10;;;;;;5019102;28;20054;-70
2021/12/12 05:52:15;;;;;;;10.82;2.63;;;27.60;68.90;;;;;;5015160;28;20072;-70
2021/12/12 05:54:45;;;;;;;10.23;1.70;;;27.20;68.90;;;;;;5018158;28;20028;-70
2021/12/12 05:57:16;;;;;;;9.65;1.90;;;26.70;70.70;;;;;;5015256;28;20037;-70
2021/12/12 05:59:44;;;;;;;14.40;2.60;;;26.60;72.30;;;;;;5018425;28;20801;-71
2021/12/12 06:02:12;;;;;;;16.02;2.03;;;26.50;72.40;;;;;;5015539;28;20091;-71
2021/12/12 06:04:39;;;;;;;10.70;2.20;;;26.30;70.50;;;;;;5018206;28;20028;-71
2021/12/12 06:07:10;;;;;;;15.98;2.35;;;26.10;71.90;;;;;;5015626;28;20474;-71
2021/12/12 06:09:38;;;;;;;8.23;2.28;;;25.80;71.90;;;;;;5018620;28;20033;-71
2021/12/12 06:12:08;;;;;;;11.27;1.98;;;26.00;71.50;;;;;;5015992;28;20034;-70
2021/12/12 06:14:35;;;;;;;9.23;1.73;;;26.00;71.50;;;;;;5017800;28;20032;-69
2021/12/12 06:17:06;;;;;;;9.38;2.08;;;25.90;71.80;;;;;;5016238;28;20437;-69
2021/12/12 06:19:34;;;;;;;9.50;1.55;;;26.00;71.40;;;;;;5017536;28;20112;-70
2021/12/12 06:22:03;;;;;;;10.77;1.63;;;26.00;71.00;;;;;;5015736;28;20036;-70
2021/12/12 06:24:32;;;;;;;9.52;1.95;;;25.90;70.70;;;;;;5017051;28;20021;-70
2021/12/12 06:27:16;;;;;;;9.48;1.48;;;25.80;71.20;;;;;;5016865;28;20044;-71
2021/12/12 06:29:45;;;;;;;7.43;1.58;;;25.60;72.00;;;;;;5017958;28;20462;-71
2021/12/12 06:32:13;;;;;;;9.18;1.50;;;25.50;68.90;;;;;;5015336;28;20034;-71
2021/12/12 06:34:43;;;;;;;10.55;2.25;;;25.30;69.80;;;;;;5017743;28;20045;-71
2021/12/12 06:37:11;;;;;;;10.73;2.08;;;25.40;71.50;;;;;;5015721;28;20025;-71
2021/12/12 06:39:39;;;;;;;8.90;2.30;;;25.30;71.80;;;;;;5017511;28;20482;-70
2021/12/12 06:42:08;;;;;;;9.82;2.30;;;25.10;72.70;;;;;;5015628;28;20037;-70
2021/12/12 06:44:40;;;;;;;11.02;2.38;;;25.20;72.70;;;;;;5016293;28;20208;-71
2021/12/12 06:47:16;;;;;;;12.32;2.35;;;25.20;73.10;;;;;;5015543;28;20469;-70
2021/12/12 06:49:44;;;;;;;12.15;2.60;;;25.30;74.10;;;;;;5017637;28;20128;-71
2021/12/12 06:52:15;;;;;;;10.95;2.33;;;25.20;74.20;;;;;;4997917;28;20042;-71
2021/12/12 06:54:43;;;;;;;7.53;1.50;;;25.10;73.70;;;;;;5016878;28;20346;-69
2021/12/12 06:57:14;;;;;;;7.72;1.58;;;25.00;72.20;;;;;;5015669;28;20022;-69
2021/12/12 06:59:44;;;;;;;6.50;1.70;;;24.80;73.20;;;;;;5016979;28;20466;-70
2021/12/12 07:02:12;;;;;;;8.32;1.38;;;24.40;73.70;;;;;;5016109;28;20017;-70
2021/12/12 07:04:42;;;;;;;7.82;1.90;;;24.20;74.80;;;;;;5016550;28;20029;-69
2021/12/12 07:07:11;;;;;;;10.00;2.00;;;24.20;73.20;;;;;;5014555;28;20045;-70
2021/12/12 07:09:40;;;;;;;10.65;1.85;;;24.20;73.70;;;;;;5016594;28;20029;-70
2021/12/12 07:12:11;;;;;;;7.15;1.70;;;24.00;74.60;;;;;;5015910;28;20029;-71
2021/12/12 07:14:40;;;;;;;9.95;2.55;;;23.90;74.90;;;;;;5015887;28;20017;-70
2021/12/12 07:17:09;;;;;;;14.95;2.33;;;23.90;75.60;;;;;;5015604;28;20021;-71
2021/12/12 07:19:40;;;;;;;11.25;3.47;;;23.80;75.00;;;;;;5016136;28;20026;-70
2021/12/12 07:22:08;;;;;;;11.85;2.63;;;23.70;75.50;;;;;;5015828;28;20030;-71
2021/12/12 07:24:37;;;;;;;9.27;1.85;;;23.70;75.50;;;;;;5017857;28;20049;-71
2021/12/12 07:27:05;;;;;;;9.75;1.55;;;23.70;75.70;;;;;;4999335;28;20030;-71
2021/12/12 07:29:33;;;;;;;8.18;1.88;;;23.60;75.40;;;;;;5014870;28;20505;-71
2021/12/12 07:32:01;;;;;;;11.00;2.45;;;23.60;75.80;;;;;;5016159;28;20078;-72
2021/12/12 07:34:29;;;;;;;8.70;2.08;;;23.50;77.40;;;;;;5013210;28;20020;-69
2021/12/12 07:37:00;;;;;;;9.90;1.60;;;23.50;77.20;;;;;;5016045;28;20036;-71
2021/12/12 07:39:31;;;;;;;12.48;2.08;;;23.30;76.30;;;;;;5006595;28;20022;-70
2021/12/12 07:42:01;;;;;;;12.90;2.38;;;23.00;78.10;;;;;;5008563;28;20448;-70
2021/12/12 07:44:35;;;;;;;12.38;2.63;;;22.70;79.80;;;;;;5007969;28;20017;-70
2021/12/12 07:47:06;;;;;;;9.13;2.58;;;22.60;79.90;;;;;;5011975;28;20113;-71
2021/12/12 07:49:41;;;;;;;13.88;2.83;;;22.50;80.60;;;;;;5013482;28;20502;-72
2021/12/12 07:52:14;;;;;;;13.80;3.03;;;22.60;81.10;;;;;;5014481;28;20094;-72
2021/12/12 07:54:42;;;;;;;8.93;1.92;;;22.60;81.10;;;;;;5014944;28;20090;-72
2021/12/12 07:57:10;;;;;;;11.02;2.72;;;22.60;81.70;;;;;;5015069;28;20028;-71
2021/12/12 07:59:40;;;;;;;8.70;1.65;;;22.40;82.40;;;;;;5015003;28;20021;-71
2021/12/12 08:02:11;;;;;;;9.88;1.75;;;22.30;82.40;;;;;;5014761;28;20030;-71
2021/12/12 08:04:40;;;;;;;8.18;1.60;;;22.30;82.60;;;;;;5014186;28;20029;-73
2021/12/12 08:07:15;;;;;;;13.23;1.60;;;22.30;82.40;;;;;;5015871;28;20127;-72
2021/12/12 08:09:44;;;;;;;7.85;1.23;;;22.00;82.50;;;;;;5014958;28;20024;-71
2021/12/12 08:12:17;;;;;;;11.15;2.08;;;22.00;83.00;;;;;;5014959;28;20040;-75
2021/12/12 08:14:45;;;;;;;9.20;2.55;;;21.80;82.90;;;;;;5015187;28;20010;-71
2021/12/12 08:17:16;;;;;;;9.68;2.00;;;21.80;81.20;;;;;;4997829;28;20125;-74
2021/12/12 08:19:44;;;;;;;9.60;2.90;;;21.70;80.70;;;;;;5019047;28;20018;-75
2021/12/12 08:22:12;;;;;;;10.13;3.45;;;21.70;81.00;;;;;;5019961;28;20475;-72
2021/12/12 08:24:40;;;;;;;14.07;2.70;;;21.60;81.70;;;;;;5015765;28;20072;-71
2021/12/12 08:27:10;;;;;;;7.25;1.25;;;21.60;82.20;;;;;;5019054;28;20021;-72
2021/12/12 08:29:39;;;;;;;11.27;2.70;;;21.40;82.80;;;;;;5017213;28;20473;-71
2021/12/12 08:32:10;;;;;;;9.60;2.55;;;21.30;83.90;;;;;;5020331;28;20037;-73
2021/12/12 08:34:38;;;;;;;10.38;3.67;;;21.30;84.50;;;;;;5016587;28;20056;-72
2021/12/12 08:37:07;;;;;;;7.95;2.35;;;21.20;85.00;;;;;;5019382;28;20029;-75
2021/12/12 08:39:37;;;;;;;9.45;2.05;;;21.20;85.00;;;;;;5017608;28;20470;-72
2021/12/12 08:42:06;;;;;;;12.15;2.10;;;21.10;85.00;;;;;;5020353;28;20551;-72
2021/12/12 08:44:35;;;;;;;8.38;2.70;;;21.10;85.00;;;;;;5017645;28;20029;-73
2021/12/12 08:47:06;;;;;;;7.38;2.20;;;21.00;84.90;;;;;;5019328;28;20131;-71
2021/12/12 08:49:36;;;;;;;11.50;2.65;;;20.90;84.90;;;;;;5016708;28;20430;-72
2021/12/12 08:52:17;;;;;;;14.30;4.05;;;20.80;85.80;;;;;;5020165;28;20398;-69
2021/12/12 08:54:46;;;;;;;8.75;2.88;;;20.80;86.60;;;;;;5016790;28;20024;-69
2021/12/12 08:57:31;;;;;;;13.10;3.88;;;20.80;87.50;;;;;;5020234;28;20028;-69
2021/12/12 09:00:01;;;;;;;9.70;2.85;;;20.80;87.60;;;;;;5016831;28;20029;-73
2021/12/12 09:02:29;;;;;;;10.95;3.40;;;20.70;87.80;;;;;;5020212;28;20017;-70
2021/12/12 09:05:06;;;;;;;10.05;3.30;;;20.60;87.90;;;;;;5016794;28;20662;-70
2021/12/12 09:07:38;;;;;;;9.50;3.33;;;20.50;87.60;;;;;;5000998;28;20026;-68
2021/12/12 09:10:17;;;;;;;11.25;2.65;;;20.40;88.30;;;;;;5018239;28;20021;-71
2021/12/12 09:12:53;;;;;;;10.63;3.25;;;20.40;88.70;;;;;;5017242;28;20139;-69
2021/12/12 09:15:49;;;;;;;7.15;1.95;;;20.30;89.30;;;;;;5019247;28;20072;-69
2021/12/12 09:18:53;;;;;;;11.40;2.03;;;20.30;89.90;;;;;;5018604;28;20067;-70
2021/12/12 09:21:25;;;;;;;14.77;2.53;;;20.30;90.20;;;;;;4999113;28;20053;-71
2021/12/12 09:24:11;;;;;;;9.23;1.88;;;20.30;90.30;;;;;;5017184;28;20092;-74
2021/12/12 09:26:51;;;;;;;13.60;3.33;;;20.20;90.00;;;;;;5018339;28;20417;-73
2021/12/12 09:29:33;;;;;;;6.45;1.90;;;20.20;89.20;;;;;;5017490;28;20013;-72
2021/12/12 09:32:11;;;;;;;11.80;2.33;;;20.30;88.80;;;;;;5015487;28;20387;-72
2021/12/12 09:34:45;;;;;;;11.05;2.15;;;20.30;89.10;;;;;;5018227;28;20095;-74
2021/12/12 09:37:20;;;;;;;13.52;3.25;;;20.30;89.70;;;;;;5017891;28;20677;-74
2021/12/12 09:40:10;;;;;;;11.35;2.25;;;20.40;90.30;;;;;;5016528;28;20466;-72
2021/12/12 09:42:44;;;;;;;11.20;2.63;;;20.40;90.60;;;;;;5017456;28;20025;-73
2021/12/12 09:45:32;;;;;;;15.57;4.15;;;20.50;90.70;;;;;;5017635;28;20028;-73
2021/12/12 09:51:15;;;;;;;13.70;2.85;;;20.50;90.70;;;;;;5017125;28;20041;-71
2021/12/12 09:54:16;;;;;;;18.75;6.35;;;20.40;90.90;;;;;;5018168;28;20120;-71
2021/12/12 09:56:52;;;;;;;8.45;2.28;;;20.40;91.10;;;;;;5017487;28;20025;-73
2021/12/12 09:59:44;;;;;;;9.30;1.65;;;20.40;91.20;;;;;;5016317;28;20032;-72
2021/12/12 10:02:54;;;;;;;11.50;2.33;;;20.30;91.00;;;;;;5006074;28;20022;-71
2021/12/12 10:05:38;;;;;;;9.48;1.88;;;20.30;90.90;;;;;;4972472;28;20019;-72
2021/12/12 10:08:20;;;;;;;15.00;2.28;;;20.20;90.90;;;;;;5012990;28;20037;-71
2021/12/12 10:10:55;;;;;;;12.02;2.50;;;20.20;90.80;;;;;;5015286;28;20037;-72
2021/12/12 10:13:31;;;;;;;11.68;2.83;;;20.20;90.90;;;;;;5014500;28;20021;-70
2021/12/12 10:16:07;;;;;;;12.57;2.20;;;20.20;91.40;;;;;;5013941;28;20018;-71
2021/12/12 10:19:01;;;;;;;16.30;3.83;;;20.20;91.20;;;;;;5016162;28;20021;-72
2021/12/12 10:21:39;;;;;;;13.57;2.38;;;20.10;91.40;;;;;;5016522;28;20045;-72
2021/12/12 10:24:32;;;;;;;13.07;2.78;;;20.10;91.50;;;;;;5016191;28;20386;-74
2021/12/12 10:27:08;;;;;;;11.82;2.00;;;20.10;91.70;;;;;;5015711;28;20030;-71
2021/12/12 10:30:06;;;;;;;6.72;2.10;;;20.00;91.60;;;;;;5017516;28;20052;-71
2021/12/12 10:32:40;;;;;;;11.52;1.58;;;20.00;91.90;;;;;;5017523;28;20052;-73
2021/12/12 10:35:34;;;;;;;12.45;2.10;;;20.00;92.00;;;;;;5016896;28;20021;-72
2021/12/12 10:38:23;;;;;;;12.07;2.42;;;19.90;92.30;;;;;;4988362;28;20042;-69
2021/12/12 10:40:54;;;;;;;14.68;2.35;;;19.90;92.50;;;;;;4995551;28;20022;-71
2021/12/12 10:43:49;;;;;;;11.05;2.20;;;19.90;92.60;;;;;;4998223;28;20426;-70
2021/12/12 10:46:46;;;;;;;12.55;2.17;;;19.90;92.90;;;;;;4997066;28;20014;-72
2021/12/12 10:49:29;;;;;;;13.48;2.35;;;19.90;93.00;;;;;;4974151;28;20059;-73
2021/12/12 10:52:06;;;;;;;11.77;2.65;;;20.00;93.10;;;;;;4994251;28;20373;-70
2021/12/12 10:54:51;;;;;;;11.15;2.33;;;19.90;93.20;;;;;;4998059;28;20014;-70
2021/12/12 10:57:24;;;;;;;13.60;2.95;;;19.90;93.40;;;;;;4998061;28;20105;-72
2021/12/12 10:59:57;;;;;;;16.08;2.28;;;19.90;93.40;;;;;;5016095;28;20593;-70
2021/12/12 11:02:35;;;;;;;17.35;3.92;;;19.90;93.60;;;;;;5012142;28;20056;-69
2021/12/12 11:05:12;;;;;;;8.32;2.38;;;19.80;93.50;;;;;;5014381;28;20018;-69
2021/12/12 11:07:55;;;;;;;10.25;1.85;;;19.80;93.60;;;;;;5013278;28;20025;-69
2021/12/12 11:10:31;;;;;;;12.18;2.20;;;19.80;93.80;;;;;;5011298;28;20013;-72
2021/12/12 11:13:03;;;;;;;15.20;3.58;;;19.80;94.10;;;;;;5014101;28;20112;-71
2021/12/12 11:15:42;;;;;;;13.60;2.42;;;19.80;94.30;;;;;;5013900;28;20025;-72
2021/12/12 11:18:12;;;;;;;16.25;2.38;;;19.80;94.50;;;;;;4999004;28;20037;-72
2021/12/12 11:21:11;;;;;;;14.93;2.28;;;19.80;94.70;;;;;;4998133;28;20029;-71
2021/12/12 11:24:01;;;;;;;14.20;3.25;;;19.80;94.90;;;;;;5013051;28;20506;-71
2021/12/12 11:26:34;;;;;;;17.52;2.63;;;19.80;95.30;;;;;;5013275;28;20490;-72
2021/12/12 11:29:12;;;;;;;14.32;2.83;;;19.80;95.50;;;;;;5014777;28;20079;-72
2021/12/12 11:31:46;;;;;;;15.15;3.40;;;19.80;95.70;;;;;;4995708;28;20029;-71
2021/12/12 11:34:14;;;;;;;15.13;2.92;;;19.70;95.80;;;;;;5015731;28;20025;-72
2021/12/12 11:37:05;;;;;;;13.32;2.63;;;19.70;96.10;;;;;;5014419;28;20884;-72
2021/12/12 11:40:08;;;;;;;18.95;4.82;;;19.60;96.30;;;;;;5006948;28;20112;-71
2021/12/12 11:42:47;;;;;;;12.57;2.22;;;19.60;96.40;;;;;;5007796;28;20151;-71
2021/12/12 11:45:48;;;;;;;14.75;2.30;;;19.60;96.60;;;;;;5015305;28;20022;-71
2021/12/12 11:48:28;;;;;;;13.55;1.88;;;19.50;96.90;;;;;;5001631;28;20030;-70
2021/12/12 11:51:31;;;;;;;18.75;2.40;;;19.50;97.00;;;;;;5014387;28;20133;-71
2021/12/12 11:54:21;;;;;;;16.63;2.97;;;19.50;97.20;;;;;;5009616;28;20152;-70
2021/12/12 11:56:55;;;;;;;13.65;2.58;;;19.60;97.40;;;;;;5016138;28;20588;-71
2021/12/12 11:59:31;;;;;;;14.32;2.15;;;19.50;97.60;;;;;;5017527;28;20034;-71
2021/12/12 12:02:35;;;;;;;14.73;2.45;;;19.50;97.60;;;;;;5017254;28;20477;-72
2021/12/12 12:05:26;;;;;;;12.98;2.30;;;19.50;97.80;;;;;;4999936;28;20125;-71
2021/12/12 12:08:31;;;;;;;16.10;2.92;;;19.50;97.80;;;;;;4998282;28;20100;-72
2021/12/12 12:11:24;;;;;;;13.88;2.63;;;19.50;97.90;;;;;;5016536;28;20053;-70
2021/12/12 12:14:18;;;;;;;16.20;2.90;;;19.50;97.70;;;;;;5016805;28;20028;-71
2021/12/12 12:17:06;;;;;;;11.07;2.30;;;19.50;97.80;;;;;;5013931;28;20453;-71
2021/12/12 12:19:48;;;;;;;12.77;1.98;;;19.50;97.70;;;;;;5014341;28;20021;-71
2021/12/12 12:22:33;;;;;;;15.75;3.13;;;19.40;97.70;;;;;;5017021;28;20017;-71
2021/12/12 12:25:40;;;;;;;14.82;3.10;;;19.40;97.40;;;;;;5017013;28;20078;-71
2021/12/12 12:28:09;;;;;;;16.00;2.83;;;19.30;97.70;;;;;;5010072;28;20045;-71
2021/12/12 12:31:01;;;;;;;16.52;2.60;;;19.30;97.60;;;;;;5006281;28;20029;-71
2021/12/12 12:34:06;;;;;;;11.07;1.85;;;19.30;97.80;;;;;;5014658;28;20032;-72
2021/12/12 12:37:10;;;;;;;17.38;2.70;;;19.30;97.90;;;;;;5008837;28;20025;-71
2021/12/12 12:39:56;;;;;;;15.52;3.17;;;19.30;98.00;;;;;;5008883;28;20018;-72
2021/12/12 12:43:00;;;;;;;10.45;1.63;;;19.30;97.90;;;;;;5018792;28;20083;-71
2021/12/12 12:45:35;;;;;;;17.08;2.10;;;19.30;98.10;;;;;;5017686;28;20006;-73
2021/12/12 12:48:33;;;;;;;14.73;2.33;;;19.20;97.90;;;;;;5015148;28;20191;-72
2021/12/12 12:51:37;;;;;;;12.48;2.75;;;19.20;97.90;;;;;;5013720;28;20721;-71
2021/12/12 12:54:36;;;;;;;12.65;1.95;;;19.20;97.90;;;;;;5014731;28;20029;-71
2021/12/12 12:57:09;;;;;;;15.00;2.75;;;19.20;98.00;;;;;;4975761;28;20915;-72
2021/12/12 12:59:51;;;;;;;16.90;2.65;;;19.10;98.10;;;;;;5008065;28;20071;-72
2021/12/12 13:02:23;;;;;;;18.77;2.55;;;19.10;98.20;;;;;;5016553;28;20018;-71
2021/12/12 13:05:35;;;;;;;12.40;2.08;;;19.10;98.30;;;;;;5011680;28;20025;-71
2021/12/12 13:08:30;;;;;;;15.82;2.80;;;19.10;98.30;;;;;;5014254;28;20037;-71
2021/12/12 13:11:03;;;;;;;12.45;2.92;;;19.00;98.40;;;;;;4980992;28;20030;-72
2021/12/12 13:13:36;;;;;;;13.75;3.00;;;19.00;98.50;;;;;;5018104;28;20497;-71
2021/12/12 13:16:19;;;;;;;11.30;1.88;;;19.00;98.50;;;;;;5015658;28;20033;-71
2021/12/12 13:18:46;;;;;;;11.73;2.47;;;19.00;98.60;;;;;;5018562;28;20033;-72
2021/12/12 13:21:24;;;;;;;15.50;2.28;;;19.00;98.80;;;;;;5017795;28;20079;-72
2021/12/12 13:23:55;;;;;;;12.38;1.95;;;19.00;98.90;;;;;;5016877;28;20028;-72
2021/12/12 13:27:00;;;;;;;16.13;2.85;;;18.80;98.90;;;;;;5016666;28;20101;-71
2021/12/12 13:29:43;;;;;;;12.18;1.98;;;18.90;99.20;;;;;;4999386;28;20104;-72
2021/12/12 13:32:19;;;;;;;9.13;1.85;;;18.90;99.20;;;;;;5015630;28;20049;-72
2021/12/12 13:35:25;;;;;;;15.77;2.70;;;18.90;99.40;;;;;;5018262;28;20041;-72
2021/12/12 13:38:13;;;;;;;10.65;2.22;;;18.90;99.30;;;;;;5016666;28;20402;-73
2021/12/12 13:41:06;;;;;;;18.88;3.40;;;18.90;99.30;;;;;;5018567;28;20048;-72
2021/12/12 13:43:48;;;;;;;16.17;1.88;;;18.90;99.40;;;;;;5018626;28;20363;-72
2021/12/12 13:46:15;;;;;;;11.02;2.85;;;18.90;99.60;;;;;;5016732;28;20029;-71
2021/12/12 13:48:54;;;;;;;22.85;2.90;;;18.90;99.70;;;;;;5018474;28;20033;-72
2021/12/12 13:51:27;;;;;;;12.45;2.58;;;18.90;99.90;;;;;;5017958;28;20563;-71